createdAt,value
2023-07-14T00:00:05.701Z,1019.6
2023-07-14T00:05:03.373Z,1019.66
2023-07-14T00:10:05.192Z,1019.7
2023-07-14T00:15:03.284Z,1019.74
2023-07-14T00:20:03.171Z,1019.85
2023-07-14T00:25:03.050Z,1019.87
2023-07-14T00:30:06.305Z,1019.97
2023-07-14T00:35:03.110Z,1019.97
2023-07-14T00:40:03.247Z,1020.0
2023-07-14T00:45:03.497Z,1020.0
2023-07-14T00:50:03.905Z,1019.94
2023-07-14T00:55:03.196Z,1019.94
2023-07-14T01:00:03.206Z,1019.96
2023-07-14T01:05:03.072Z,1019.96
2023-07-14T01:10:03.754Z,1019.97
2023-07-14T01:15:03.027Z,1019.91
2023-07-14T01:20:03.163Z,1019.89
2023-07-14T01:25:03.831Z,1019.89
2023-07-14T01:30:03.750Z,1020.01
2023-07-14T01:35:03.005Z,1020.06
2023-07-14T01:40:03.353Z,1020.21
2023-07-14T01:45:03.042Z,1020.24
2023-07-14T01:50:03.150Z,1020.31
2023-07-14T01:55:02.980Z,1020.3
2023-07-14T02:00:03.513Z,1020.32
2023-07-14T02:05:03.012Z,1020.3
2023-07-14T02:10:03.021Z,1020.32
2023-07-14T02:15:03.043Z,1020.35
2023-07-14T02:20:03.096Z,1020.37
2023-07-14T02:25:02.863Z,1020.33
2023-07-14T02:30:03.853Z,1020.39
2023-07-14T02:35:02.967Z,1020.44
2023-07-14T02:40:04.132Z,1020.44
2023-07-14T02:45:02.990Z,1020.47
2023-07-14T02:50:03.107Z,1020.49
2023-07-14T02:55:02.962Z,1020.53
2023-07-14T03:00:03.024Z,1020.5
2023-07-14T03:05:03.080Z,1020.46
2023-07-14T03:10:03.139Z,1020.4
2023-07-14T03:15:02.975Z,1020.4
2023-07-14T03:20:03.118Z,1020.38
2023-07-14T03:25:02.988Z,1020.37
2023-07-14T03:30:03.170Z,1020.37
2023-07-14T03:35:03.072Z,1020.37
2023-07-14T03:40:03.034Z,1020.39
2023-07-14T03:45:03.005Z,1020.31
2023-07-14T03:50:03.125Z,1020.35
2023-07-14T03:55:02.924Z,1020.35
2023-07-14T04:00:03.172Z,1020.31
2023-07-14T04:05:07.988Z,1020.32
2023-07-14T04:10:03.838Z,1020.34
2023-07-14T04:15:02.962Z,1020.26
2023-07-14T04:20:03.080Z,1020.22
2023-07-14T04:25:04.030Z,1020.33
2023-07-14T04:30:03.163Z,1020.4
2023-07-14T04:35:02.922Z,1020.41
2023-07-14T04:40:03.059Z,1020.31
2023-07-14T04:45:03.635Z,1020.24
2023-07-14T04:50:03.237Z,1020.19
2023-07-14T04:55:02.937Z,1020.18
2023-07-14T05:00:02.992Z,1020.14
2023-07-14T05:05:02.929Z,1020.08
2023-07-14T05:10:03.140Z,1020.13
2023-07-14T05:15:02.908Z,1020.12
2023-07-14T05:20:03.064Z,1020.1
2023-07-14T05:25:03.024Z,1020.03
2023-07-14T05:30:03.055Z,1020.03
2023-07-14T05:35:03.008Z,1019.97
2023-07-14T05:40:03.065Z,1019.89
2023-07-14T05:45:02.939Z,1019.82
2023-07-14T05:50:02.997Z,1019.75
2023-07-14T05:55:03.025Z,1019.67
2023-07-14T06:00:03.021Z,1019.67
2023-07-14T06:05:03.005Z,1019.78
2023-07-14T06:10:03.118Z,1019.88
2023-07-14T06:15:02.922Z,1019.96
2023-07-14T06:20:08.021Z,1020.11
2023-07-14T06:25:02.959Z,1020.04
2023-07-14T06:30:03.056Z,1019.89
2023-07-14T06:35:02.964Z,1019.78
2023-07-14T06:40:03.040Z,1019.73
2023-07-14T06:45:03.533Z,1019.84
2023-07-14T06:50:03.110Z,1019.83
2023-07-14T06:55:02.957Z,1019.79
2023-07-14T07:00:03.373Z,1019.81
2023-07-14T07:05:02.980Z,1019.81
2023-07-14T07:10:03.156Z,1019.78
2023-07-14T07:15:02.953Z,1019.79
2023-07-14T07:20:03.052Z,1019.74
2023-07-14T07:25:02.964Z,1019.73
2023-07-14T07:30:03.175Z,1019.73
2023-07-14T07:35:02.956Z,1019.71
2023-07-14T07:40:03.114Z,1019.72
2023-07-14T07:45:02.960Z,1019.66
2023-07-14T07:50:03.092Z,1019.65
2023-07-14T07:55:03.013Z,1019.56
2023-07-14T08:00:03.088Z,1019.64
2023-07-14T08:05:03.046Z,1019.63
2023-07-14T08:10:03.071Z,1019.62
2023-07-14T08:15:02.936Z,1019.45
2023-07-14T08:20:03.128Z,1019.3
2023-07-14T08:25:03.025Z,1019.31
2023-07-14T08:30:03.060Z,1019.36
2023-07-14T08:35:02.977Z,1019.36
2023-07-14T08:40:03.077Z,1019.33
2023-07-14T08:45:02.954Z,1019.42
2023-07-14T08:50:03.096Z,1019.37
2023-07-14T08:55:02.990Z,1019.33
2023-07-14T09:00:03.092Z,1019.39
2023-07-14T09:05:03.051Z,1019.5
2023-07-14T09:10:03.027Z,1019.63
2023-07-14T09:15:03.001Z,1019.66
2023-07-14T09:20:03.106Z,1019.71
2023-07-14T09:25:03.264Z,1019.85
2023-07-14T09:30:03.206Z,1019.97
2023-07-14T09:35:02.877Z,1020.19
2023-07-14T09:40:03.053Z,1020.23
2023-07-14T09:45:02.965Z,1020.2
2023-07-14T09:50:03.051Z,1020.26
2023-07-14T09:55:03.001Z,1020.39
2023-07-14T10:00:03.135Z,1020.5
2023-07-14T10:05:08.166Z,1020.51
2023-07-14T10:10:03.128Z,1020.52
2023-07-14T10:15:03.019Z,1020.64
2023-07-14T10:20:03.035Z,1020.67
2023-07-14T10:25:02.941Z,1020.74
2023-07-14T10:30:03.107Z,1020.77
2023-07-14T10:35:02.973Z,1020.86
2023-07-14T10:40:02.986Z,1020.91
2023-07-14T10:45:03.003Z,1020.98
2023-07-14T10:50:03.075Z,1021.05
2023-07-14T10:55:02.931Z,1021.15
2023-07-14T11:00:03.145Z,1021.18
2023-07-14T11:05:02.945Z,1021.21
2023-07-14T11:10:03.146Z,1021.16
2023-07-14T11:15:02.937Z,1021.28
2023-07-14T11:20:03.079Z,1021.34
2023-07-14T11:25:03.080Z,1021.43
2023-07-14T11:30:03.114Z,1021.51
2023-07-14T11:35:04.040Z,1021.45
2023-07-14T11:40:03.113Z,1021.56
2023-07-14T11:45:03.116Z,1021.54
2023-07-14T11:50:03.124Z,1021.56
2023-07-14T11:55:03.013Z,1021.67
2023-07-14T12:00:03.060Z,1021.71
2023-07-14T12:05:03.093Z,1021.78
2023-07-14T12:10:03.156Z,1021.93
2023-07-14T12:15:03.078Z,1021.9
2023-07-14T12:20:03.035Z,1021.93
2023-07-14T12:25:03.016Z,1021.84
2023-07-14T12:30:03.046Z,1021.85
2023-07-14T12:35:03.121Z,1021.85
2023-07-14T12:40:03.109Z,1022.0
2023-07-14T12:45:03.078Z,1022.13
2023-07-14T12:50:03.010Z,1022.15
2023-07-14T12:55:03.033Z,1021.99
2023-07-14T13:00:03.206Z,1022.01
2023-07-14T13:05:08.063Z,1022.07
2023-07-14T13:10:03.027Z,1022.11
2023-07-14T13:15:03.066Z,1022.07
2023-07-14T13:20:03.123Z,1022.14
2023-07-14T13:25:02.956Z,1022.22
2023-07-14T13:30:03.155Z,1022.35
2023-07-14T13:35:03.125Z,1022.53
2023-07-14T13:40:02.983Z,1022.62
2023-07-14T13:45:02.988Z,1022.58
2023-07-14T13:50:03.075Z,1022.55
2023-07-14T13:55:03.016Z,1022.34
2023-07-14T14:00:03.070Z,1022.25
2023-07-14T14:05:03.019Z,1022.29
2023-07-14T14:10:03.191Z,1022.18
2023-07-14T14:15:03.019Z,1022.18
2023-07-14T14:20:03.160Z,1022.3
2023-07-14T14:25:02.982Z,1022.28
2023-07-14T14:30:03.134Z,1022.22
2023-07-14T14:35:02.969Z,1022.06
2023-07-14T14:40:03.092Z,1022.1
2023-07-14T14:45:03.124Z,1022.13
2023-07-14T14:50:03.114Z,1022.2
2023-07-14T14:55:02.929Z,1022.23
2023-07-14T15:00:03.100Z,1022.12
2023-07-14T15:05:02.994Z,1022.15
2023-07-14T15:10:03.211Z,1022.08
2023-07-14T15:15:03.007Z,1022.02
2023-07-14T15:20:03.101Z,1022.04
2023-07-14T15:25:02.884Z,1021.97
2023-07-14T15:30:03.163Z,1021.91
2023-07-14T15:35:04.049Z,1021.84
2023-07-14T15:40:03.151Z,1021.68
2023-07-14T15:45:03.123Z,1021.66
2023-07-14T15:50:03.103Z,1021.6
2023-07-14T15:55:03.071Z,1021.62
2023-07-14T16:00:04.037Z,1021.52
2023-07-14T16:05:03.032Z,1021.4
2023-07-14T16:10:03.225Z,1021.33
2023-07-14T16:15:02.997Z,1021.38
2023-07-14T16:20:03.111Z,1021.21
2023-07-14T16:25:02.942Z,1021.12
2023-07-14T16:30:03.085Z,1020.97
2023-07-14T16:35:02.899Z,1020.82
2023-07-14T16:40:03.046Z,1020.71
2023-07-14T16:45:02.986Z,1020.7
2023-07-14T16:50:03.368Z,1020.59
2023-07-14T16:55:02.987Z,1020.48
2023-07-14T17:00:03.116Z,1020.32
2023-07-14T17:05:03.274Z,1020.2
2023-07-14T17:10:03.060Z,1020.16
2023-07-14T17:15:02.954Z,1020.03
2023-07-14T17:20:03.299Z,1020.04
2023-07-14T17:25:03.060Z,1019.99
2023-07-14T17:30:03.122Z,1020.01
2023-07-14T17:35:02.966Z,1019.89
2023-07-14T17:40:03.127Z,1019.79
2023-07-14T17:45:02.873Z,1019.71
2023-07-14T17:50:03.065Z,1019.63
2023-07-14T17:55:03.022Z,1019.42
2023-07-14T18:00:03.031Z,1019.42
2023-07-14T18:05:02.959Z,1019.44
2023-07-14T18:10:03.128Z,1019.38
2023-07-14T18:15:03.027Z,1019.42
2023-07-14T18:20:03.115Z,1019.41
2023-07-14T18:25:03.325Z,1019.38
2023-07-14T18:30:03.147Z,1019.36
2023-07-14T18:35:03.109Z,1019.24
2023-07-14T18:40:03.052Z,1019.17
2023-07-14T18:45:02.965Z,1019.09
2023-07-14T18:50:08.168Z,1019.15
2023-07-14T18:55:02.952Z,1019.07
2023-07-14T19:00:03.138Z,1019.08
2023-07-14T19:05:02.866Z,1019.02
2023-07-14T19:10:03.094Z,1019.08
2023-07-14T19:15:02.900Z,1018.99
2023-07-14T19:20:03.107Z,1018.98
2023-07-14T19:25:03.038Z,1018.99
2023-07-14T19:30:03.111Z,1019.03
2023-07-14T19:35:02.962Z,1018.97
2023-07-14T19:40:03.082Z,1018.8
2023-07-14T19:45:03.043Z,1018.38
2023-07-14T19:50:03.174Z,1018.59
2023-07-14T19:55:02.961Z,1018.62
2023-07-14T20:00:03.208Z,1018.56
2023-07-14T20:05:03.063Z,1018.61
2023-07-14T20:10:03.186Z,1018.7
2023-07-14T20:15:03.077Z,1018.77
2023-07-14T20:20:03.192Z,1018.8
2023-07-14T20:25:03.050Z,1018.76
2023-07-14T20:30:03.113Z,1018.78
2023-07-14T20:35:02.982Z,1018.8
2023-07-14T20:40:03.181Z,1018.82
2023-07-14T20:45:03.127Z,1018.85
2023-07-14T20:50:03.089Z,1018.86
2023-07-14T20:55:03.084Z,1018.92
2023-07-14T21:00:03.150Z,1018.96
2023-07-14T21:05:03.122Z,1018.96
2023-07-14T21:10:04.076Z,1018.98
2023-07-14T21:15:02.979Z,1019.09
2023-07-14T21:20:03.082Z,1019.08
2023-07-14T21:25:03.097Z,1019.03
2023-07-14T21:30:03.142Z,1019.1
2023-07-14T21:35:03.124Z,1019.17
2023-07-14T21:40:03.165Z,1019.24
2023-07-14T21:45:03.025Z,1019.18
2023-07-14T21:50:03.245Z,1019.18
2023-07-14T21:55:03.029Z,1019.16
2023-07-14T22:00:03.162Z,1019.19
2023-07-14T22:05:03.066Z,1019.1
2023-07-14T22:10:03.160Z,1019.09
2023-07-14T22:15:03.014Z,1019.07
2023-07-14T22:20:03.300Z,1019.09
2023-07-14T22:25:03.028Z,1019.1
2023-07-14T22:30:03.208Z,1019.11
2023-07-14T22:35:03.006Z,1019.14
2023-07-14T22:40:03.265Z,1019.16
2023-07-14T22:45:03.249Z,1019.26
2023-07-14T22:50:03.242Z,1019.26
2023-07-14T22:55:03.078Z,1019.35
2023-07-14T23:00:03.228Z,1019.48
2023-07-14T23:05:03.094Z,1019.34
2023-07-14T23:10:03.247Z,1019.48
2023-07-14T23:15:03.071Z,1019.54
2023-07-14T23:20:03.209Z,1019.61
2023-07-14T23:25:03.036Z,1019.65
2023-07-14T23:30:04.155Z,1019.58
2023-07-14T23:35:03.136Z,1019.56
2023-07-14T23:40:03.209Z,1019.59
2023-07-14T23:45:03.069Z,1019.65
2023-07-14T23:50:03.114Z,1019.7
2023-07-14T23:55:03.065Z,1019.67
